createdAt,value
2022-08-12T00:02:25.396Z,20.10
2022-08-12T00:07:47.048Z,20.00
2022-08-12T00:13:08.880Z,20.00
2022-08-12T00:18:30.452Z,20.00
2022-08-12T00:23:51.968Z,20.00
2022-08-12T00:29:14.109Z,20.00
2022-08-12T00:34:36.087Z,20.00
2022-08-12T00:40:00.194Z,20.10
2022-08-12T00:45:03.837Z,20.10
2022-08-12T00:50:12.466Z,20.10
2022-08-12T00:55:17.250Z,20.10
2022-08-12T01:00:24.372Z,20.10
2022-08-12T01:05:46.018Z,20.00
2022-08-12T01:11:08.970Z,19.90
2022-08-12T01:16:12.237Z,19.80
2022-08-12T01:21:27.774Z,19.70
2022-08-12T01:26:34.999Z,19.70
2022-08-12T01:31:39.539Z,19.60
2022-08-12T01:36:51.280Z,19.60
2022-08-12T01:41:59.263Z,19.50
2022-08-12T01:47:24.089Z,19.40
2022-08-12T01:52:37.193Z,19.30
2022-08-12T01:57:58.947Z,19.20
2022-08-12T02:03:52.770Z,19.10
2022-08-12T02:09:19.751Z,19.10
2022-08-12T02:14:34.585Z,19.00
2022-08-12T02:20:22.822Z,18.90
2022-08-12T02:25:41.756Z,18.80
2022-08-12T02:30:44.637Z,18.80
2022-08-12T02:35:48.161Z,18.70
2022-08-12T02:40:56.174Z,18.70
2022-08-12T02:46:15.885Z,18.60
2022-08-12T02:51:24.623Z,18.60
2022-08-12T02:56:28.891Z,18.50
2022-08-12T03:01:34.959Z,18.40
2022-08-12T03:06:51.323Z,18.40
2022-08-12T03:12:06.331Z,18.30
2022-08-12T03:17:29.527Z,18.20
2022-08-12T03:22:38.830Z,18.20
2022-08-12T03:27:55.979Z,18.20
2022-08-12T03:33:02.792Z,18.10
2022-08-12T03:38:11.745Z,18.00
2022-08-12T03:43:50.767Z,18.00
2022-08-12T03:49:12.570Z,17.80
2022-08-12T03:54:34.340Z,17.80
2022-08-12T03:59:55.679Z,17.70
2022-08-12T04:04:58.786Z,17.70
2022-08-12T04:10:02.532Z,17.70
2022-08-12T04:15:06.708Z,17.70
2022-08-12T04:20:13.544Z,17.80
2022-08-12T04:25:16.476Z,17.90
2022-08-12T04:30:33.398Z,17.90
2022-08-12T04:35:37.294Z,18.00
2022-08-12T04:40:41.163Z,18.10
2022-08-12T04:45:44.135Z,18.10
2022-08-12T04:50:47.064Z,18.30
2022-08-12T04:55:52.276Z,18.30
2022-08-12T05:00:55.248Z,18.40
2022-08-12T05:05:59.200Z,18.40
2022-08-12T05:11:02.161Z,18.50
2022-08-12T05:16:10.555Z,18.70
2022-08-12T05:21:16.652Z,18.90
2022-08-12T05:26:20.422Z,19.00
2022-08-12T05:31:45.536Z,19.30
2022-08-12T05:36:48.495Z,19.60
2022-08-12T05:41:51.495Z,19.80
2022-08-12T05:46:54.436Z,20.00
2022-08-12T05:51:58.117Z,20.20
2022-08-12T05:57:01.001Z,20.50
2022-08-12T06:02:10.006Z,20.70
2022-08-12T06:08:00.353Z,21.00
2022-08-12T06:12:39.301Z,21.20
2022-08-12T06:17:42.394Z,21.40
2022-08-12T06:22:50.953Z,21.60
2022-08-12T06:28:06.177Z,21.80
2022-08-12T06:33:23.080Z,21.90
2022-08-12T06:38:31.391Z,22.00
2022-08-12T06:44:04.637Z,22.20
2022-08-12T06:49:07.039Z,22.40
2022-08-12T06:54:11.575Z,22.60
2022-08-12T06:59:15.798Z,22.70
2022-08-12T07:04:37.292Z,22.90
2022-08-12T07:10:06.652Z,23.00
2022-08-12T07:15:06.736Z,23.20
2022-08-12T07:20:29.650Z,23.40
2022-08-12T07:25:44.093Z,23.70
2022-08-12T07:30:50.381Z,23.90
2022-08-12T07:35:54.048Z,24.10
2022-08-12T07:41:03.609Z,24.30
2022-08-12T07:46:20.465Z,24.50
2022-08-12T07:51:29.981Z,24.60
2022-08-12T07:56:42.559Z,24.80
2022-08-12T08:01:45.961Z,24.90
2022-08-12T08:06:52.964Z,25.10
2022-08-12T08:12:18.697Z,25.20
2022-08-12T08:17:23.615Z,25.40
2022-08-12T08:22:42.070Z,25.40
2022-08-12T08:27:54.828Z,25.50
2022-08-12T08:38:32.097Z,25.80
2022-08-12T08:43:44.038Z,25.90
2022-08-12T08:48:47.645Z,26.10
2022-08-12T08:53:52.814Z,26.20
2022-08-12T08:58:57.787Z,26.20
2022-08-12T09:09:23.865Z,26.50
2022-08-12T09:14:29.372Z,26.70
2022-08-12T09:19:33.357Z,26.80
2022-08-12T09:24:36.773Z,26.90
2022-08-12T09:30:10.508Z,27.00
2022-08-12T09:35:03.960Z,27.20
2022-08-12T09:41:01.710Z,27.40
2022-08-12T09:46:19.569Z,27.60
2022-08-12T09:50:58.558Z,27.80
2022-08-12T09:57:00.873Z,28.10
2022-08-12T10:01:34.465Z,28.10
2022-08-12T10:06:54.800Z,28.30
2022-08-12T10:12:31.668Z,28.50
2022-08-12T10:17:36.049Z,28.60
2022-08-12T10:23:00.378Z,28.70
2022-08-12T10:28:25.252Z,28.80
2022-08-12T10:33:31.923Z,28.90
2022-08-12T10:38:41.080Z,28.80
2022-08-12T10:43:55.097Z,28.80
2022-08-12T10:49:06.277Z,29.00
2022-08-12T10:54:28.602Z,29.10
2022-08-12T11:00:29.262Z,29.20
2022-08-12T11:04:59.469Z,29.10
2022-08-12T11:10:26.535Z,28.90
2022-08-12T11:16:04.066Z,29.10
2022-08-12T11:20:54.369Z,29.20
2022-08-12T11:26:05.628Z,29.10
2022-08-12T11:31:13.931Z,28.90
2022-08-12T11:36:22.040Z,28.70
2022-08-12T11:41:31.276Z,28.60
2022-08-12T11:46:37.309Z,28.40
2022-08-12T11:51:40.292Z,28.20
2022-08-12T11:56:59.539Z,28.30
2022-08-12T12:02:04.911Z,28.50
2022-08-12T12:07:11.147Z,28.70
2022-08-12T12:12:14.964Z,28.70
2022-08-12T12:17:18.339Z,28.80
2022-08-12T12:22:23.108Z,28.80
2022-08-12T12:27:39.249Z,29.20
2022-08-12T12:32:53.312Z,30.00
2022-08-12T12:38:05.256Z,30.60
2022-08-12T12:43:15.844Z,30.90
2022-08-12T12:48:21.139Z,31.30
2022-08-12T12:54:06.518Z,31.60
2022-08-12T12:58:51.826Z,31.50
2022-08-12T13:04:02.512Z,31.50
2022-08-12T13:09:08.181Z,31.80
2022-08-12T13:14:28.816Z,32.00
2022-08-12T13:19:46.812Z,31.90
2022-08-12T13:24:56.866Z,31.70
2022-08-12T13:30:03.901Z,31.40
2022-08-12T13:35:20.188Z,31.30
2022-08-12T13:40:33.929Z,31.30
2022-08-12T13:45:36.973Z,31.20
2022-08-12T13:50:43.560Z,31.20
2022-08-12T13:55:49.890Z,31.30
2022-08-12T14:01:05.931Z,31.10
2022-08-12T14:06:09.791Z,30.90
2022-08-12T14:11:25.375Z,31.00
2022-08-12T14:16:47.187Z,31.30
2022-08-12T14:21:59.655Z,31.40
2022-08-12T14:27:09.157Z,31.60
2022-08-12T14:32:16.364Z,31.60
2022-08-12T14:37:56.443Z,31.70
2022-08-12T14:42:46.787Z,31.80
2022-08-12T14:47:53.734Z,31.90
2022-08-12T14:58:27.110Z,31.80
2022-08-12T15:03:52.989Z,32.10
2022-08-12T15:08:54.888Z,32.10
2022-08-12T15:14:00.259Z,32.00
2022-08-12T15:19:07.109Z,32.00
2022-08-12T15:24:26.453Z,32.30
2022-08-12T15:29:29.610Z,32.60
2022-08-12T15:34:33.836Z,32.50
2022-08-12T15:39:36.793Z,32.20
2022-08-12T15:44:42.642Z,31.80
2022-08-12T15:49:59.507Z,31.70
2022-08-12T15:55:06.409Z,31.70
2022-08-12T16:00:29.051Z,31.60
2022-08-12T16:06:11.749Z,31.50
2022-08-12T16:11:15.656Z,31.30
2022-08-12T16:16:23.459Z,31.20
2022-08-12T16:21:52.747Z,31.20
2022-08-12T16:26:54.278Z,31.10
2022-08-12T16:31:59.681Z,30.80
2022-08-12T16:37:13.582Z,30.60
2022-08-12T16:42:21.206Z,30.40
2022-08-12T16:47:27.289Z,30.10
2022-08-12T16:52:30.390Z,29.80
2022-08-12T16:57:35.195Z,29.60
2022-08-12T17:02:40.572Z,29.40
2022-08-12T17:07:47.290Z,29.10
2022-08-12T17:12:55.030Z,28.90
2022-08-12T17:18:15.243Z,28.80
2022-08-12T17:23:23.368Z,28.50
2022-08-12T17:28:28.047Z,28.30
2022-08-12T17:33:34.584Z,28.10
2022-08-12T17:38:38.611Z,27.90
2022-08-12T17:43:52.069Z,27.60
2022-08-12T17:49:06.875Z,27.40
2022-08-12T17:54:27.001Z,27.20
2022-08-12T17:59:48.230Z,27.00
2022-08-12T18:05:04.512Z,26.90
2022-08-12T18:10:10.155Z,26.70
2022-08-12T18:15:26.497Z,26.50
2022-08-12T18:20:44.917Z,26.40
2022-08-12T18:26:13.920Z,26.20
2022-08-12T18:31:23.761Z,26.00
2022-08-12T18:36:29.488Z,25.80
2022-08-12T18:41:35.875Z,25.60
2022-08-12T18:46:55.765Z,25.40
2022-08-12T18:52:04.686Z,25.30
2022-08-12T18:57:19.690Z,25.30
2022-08-12T19:02:40.056Z,25.20
2022-08-12T19:08:00.234Z,25.10
2022-08-12T19:13:25.270Z,25.00
2022-08-12T19:18:38.472Z,24.90
2022-08-12T19:23:43.648Z,24.80
2022-08-12T19:28:49.578Z,24.70
2022-08-12T19:34:23.859Z,24.60
2022-08-12T19:39:25.164Z,24.40
2022-08-12T19:44:37.943Z,24.20
2022-08-12T19:49:54.098Z,24.20
2022-08-12T19:54:58.354Z,24.10
2022-08-12T20:00:06.417Z,24.00
2022-08-12T20:06:03.429Z,24.00
2022-08-12T20:10:35.600Z,23.90
2022-08-12T20:15:45.025Z,23.70
2022-08-12T20:20:49.203Z,23.50
2022-08-12T20:26:01.874Z,23.30
2022-08-12T20:31:11.943Z,23.20
2022-08-12T20:36:41.467Z,23.10
2022-08-12T20:41:42.283Z,23.00
2022-08-12T20:46:45.470Z,22.90
2022-08-12T20:51:54.865Z,22.80
2022-08-12T20:57:00.999Z,22.70
2022-08-12T21:02:05.908Z,22.60
2022-08-12T21:07:10.451Z,22.50
2022-08-12T21:12:28.159Z,22.40
2022-08-12T21:18:08.933Z,22.20
2022-08-12T21:23:00.469Z,22.10
2022-08-12T21:28:06.808Z,22.00
2022-08-12T21:33:14.762Z,21.80
2022-08-12T21:38:19.707Z,21.70
2022-08-12T21:43:26.782Z,21.60
2022-08-12T21:48:41.778Z,21.50
2022-08-12T21:54:06.892Z,21.50
2022-08-12T21:59:15.455Z,21.50
2022-08-12T22:04:37.031Z,21.50
2022-08-12T22:09:42.862Z,21.40
2022-08-12T22:14:49.792Z,21.30
2022-08-12T22:19:52.753Z,21.20
2022-08-12T22:24:58.500Z,21.10
2022-08-12T22:30:20.549Z,21.00
2022-08-12T22:35:55.747Z,20.90
2022-08-12T22:41:33.250Z,20.70
2022-08-12T22:46:54.962Z,20.50
2022-08-12T22:52:01.356Z,20.40
2022-08-12T22:57:11.984Z,20.30
2022-08-12T23:02:17.467Z,20.30
2022-08-12T23:07:36.058Z,20.40
2022-08-12T23:13:14.269Z,20.50
2022-08-12T23:18:18.524Z,20.70
2022-08-12T23:23:21.353Z,20.80
2022-08-12T23:28:44.141Z,20.90
2022-08-12T23:34:01.842Z,21.00
2022-08-12T23:40:13.703Z,21.10
2022-08-12T23:44:38.332Z,21.20
2022-08-12T23:49:56.998Z,21.30
2022-08-12T23:55:24.709Z,21.40
